sensor_id;sensor_type;location;lat;lon;timestamp;temperature;humidity
33093;DHT22;19456;46.104;12.908;2023-04-25T00:01:21;9.60;99.90
33093;DHT22;19456;46.104;12.908;2023-04-25T00:03:47;9.70;99.90
33093;DHT22;19456;46.104;12.908;2023-04-25T00:06:13;9.70;99.90
33093;DHT22;19456;46.104;12.908;2023-04-25T00:08:39;9.70;99.90
33093;DHT22;19456;46.104;12.908;2023-04-25T00:11:04;9.70;99.90
33093;DHT22;19456;46.104;12.908;2023-04-25T00:13:30;9.80;99.90
33093;DHT22;19456;46.104;12.908;2023-04-25T00:15:55;9.80;99.90
33093;DHT22;19456;46.104;12.908;2023-04-25T00:18:25;9.80;99.90
33093;DHT22;19456;46.104;12.908;2023-04-25T00:20:54;9.80;99.90
33093;DHT22;19456;46.104;12.908;2023-04-25T00:23:19;9.90;99.90
33093;DHT22;19456;46.104;12.908;2023-04-25T00:25:45;10.00;99.90
33093;DHT22;19456;46.104;12.908;2023-04-25T00:28:11;9.90;99.90
33093;DHT22;19456;46.104;12.908;2023-04-25T00:30:37;9.90;99.90
33093;DHT22;19456;46.104;12.908;2023-04-25T00:33:03;9.70;99.90
33093;DHT22;19456;46.104;12.908;2023-04-25T00:35:29;9.70;99.90
33093;DHT22;19456;46.104;12.908;2023-04-25T00:37:54;9.60;99.90
33093;DHT22;19456;46.104;12.908;2023-04-25T00:40:20;9.50;99.90
33093;DHT22;19456;46.104;12.908;2023-04-25T00:42:46;9.40;99.90
33093;DHT22;19456;46.104;12.908;2023-04-25T00:45:12;9.30;99.90
33093;DHT22;19456;46.104;12.908;2023-04-25T00:47:39;9.30;99.90
33093;DHT22;19456;46.104;12.908;2023-04-25T00:50:05;9.20;99.90
33093;DHT22;19456;46.104;12.908;2023-04-25T00:52:31;9.20;99.90
33093;DHT22;19456;46.104;12.908;2023-04-25T00:54:57;9.10;99.90
33093;DHT22;19456;46.104;12.908;2023-04-25T00:57:22;9.10;99.90
33093;DHT22;19456;46.104;12.908;2023-04-25T00:59:48;9.10;99.90
33093;DHT22;19456;46.104;12.908;2023-04-25T01:02:16;9.10;99.90
33093;DHT22;19456;46.104;12.908;2023-04-25T01:04:41;9.10;99.90
33093;DHT22;19456;46.104;12.908;2023-04-25T01:07:07;9.10;99.90
33093;DHT22;19456;46.104;12.908;2023-04-25T01:09:33;9.10;99.90
33093;DHT22;19456;46.104;12.908;2023-04-25T01:11:59;9.00;99.90
33093;DHT22;19456;46.104;12.908;2023-04-25T01:14:25;9.10;99.90
33093;DHT22;19456;46.104;12.908;2023-04-25T01:16:51;9.10;99.90
33093;DHT22;19456;46.104;12.908;2023-04-25T01:19:18;9.10;99.90
33093;DHT22;19456;46.104;12.908;2023-04-25T01:21:45;9.10;99.90
33093;DHT22;19456;46.104;12.908;2023-04-25T01:24:11;9.20;99.90
33093;DHT22;19456;46.104;12.908;2023-04-25T01:26:36;9.20;99.90
33093;DHT22;19456;46.104;12.908;2023-04-25T01:29:03;9.20;99.90
33093;DHT22;19456;46.104;12.908;2023-04-25T01:31:29;9.20;99.90
33093;DHT22;19456;46.104;12.908;2023-04-25T01:33:55;9.10;99.90
33093;DHT22;19456;46.104;12.908;2023-04-25T01:36:20;9.00;99.90
33093;DHT22;19456;46.104;12.908;2023-04-25T01:38:46;9.00;99.90
33093;DHT22;19456;46.104;12.908;2023-04-25T01:41:13;9.00;99.90
33093;DHT22;19456;46.104;12.908;2023-04-25T01:43:39;9.10;99.90
33093;DHT22;19456;46.104;12.908;2023-04-25T01:46:04;9.20;99.90
33093;DHT22;19456;46.104;12.908;2023-04-25T01:48:30;9.20;99.90
33093;DHT22;19456;46.104;12.908;2023-04-25T01:50:55;9.20;99.90
33093;DHT22;19456;46.104;12.908;2023-04-25T01:53:21;9.20;99.90
33093;DHT22;19456;46.104;12.908;2023-04-25T01:55:47;9.20;99.90
33093;DHT22;19456;46.104;12.908;2023-04-25T01:58:13;9.20;99.90
33093;DHT22;19456;46.104;12.908;2023-04-25T02:00:39;9.10;99.90
33093;DHT22;19456;46.104;12.908;2023-04-25T02:03:06;9.00;99.90
33093;DHT22;19456;46.104;12.908;2023-04-25T02:05:35;9.00;99.90
33093;DHT22;19456;46.104;12.908;2023-04-25T02:08:02;8.90;99.90
33093;DHT22;19456;46.104;12.908;2023-04-25T02:10:27;8.90;99.90
33093;DHT22;19456;46.104;12.908;2023-04-25T02:12:53;8.90;99.90
33093;DHT22;19456;46.104;12.908;2023-04-25T02:15:18;8.90;99.90
33093;DHT22;19456;46.104;12.908;2023-04-25T02:17:44;8.80;99.90
33093;DHT22;19456;46.104;12.908;2023-04-25T02:20:10;8.80;99.90
33093;DHT22;19456;46.104;12.908;2023-04-25T02:22:36;8.80;99.90
33093;DHT22;19456;46.104;12.908;2023-04-25T02:25:02;8.70;99.90
33093;DHT22;19456;46.104;12.908;2023-04-25T02:27:30;8.70;99.90
33093;DHT22;19456;46.104;12.908;2023-04-25T02:29:56;8.70;99.90
33093;DHT22;19456;46.104;12.908;2023-04-25T02:32:21;8.70;99.90
33093;DHT22;19456;46.104;12.908;2023-04-25T02:34:47;8.70;99.90
33093;DHT22;19456;46.104;12.908;2023-04-25T02:37:13;8.70;99.90
33093;DHT22;19456;46.104;12.908;2023-04-25T02:39:39;8.70;99.90
33093;DHT22;19456;46.104;12.908;2023-04-25T02:42:04;8.70;99.90
33093;DHT22;19456;46.104;12.908;2023-04-25T02:44:30;8.70;99.90
33093;DHT22;19456;46.104;12.908;2023-04-25T02:46:55;8.60;99.90
33093;DHT22;19456;46.104;12.908;2023-04-25T02:49:21;8.60;99.90
33093;DHT22;19456;46.104;12.908;2023-04-25T02:51:47;8.50;99.90
33093;DHT22;19456;46.104;12.908;2023-04-25T02:54:12;8.50;99.90
33093;DHT22;19456;46.104;12.908;2023-04-25T02:56:38;8.50;99.90
33093;DHT22;19456;46.104;12.908;2023-04-25T02:59:03;8.50;99.90
33093;DHT22;19456;46.104;12.908;2023-04-25T03:01:29;8.50;99.90
33093;DHT22;19456;46.104;12.908;2023-04-25T03:03:54;8.50;99.90
33093;DHT22;19456;46.104;12.908;2023-04-25T03:06:20;8.50;99.90
33093;DHT22;19456;46.104;12.908;2023-04-25T03:08:45;8.60;99.90
33093;DHT22;19456;46.104;12.908;2023-04-25T03:11:11;8.60;99.90
33093;DHT22;19456;46.104;12.908;2023-04-25T03:13:36;8.50;99.90
33093;DHT22;19456;46.104;12.908;2023-04-25T03:16:02;8.50;99.90
33093;DHT22;19456;46.104;12.908;2023-04-25T03:18:28;8.40;99.90
33093;DHT22;19456;46.104;12.908;2023-04-25T03:20:53;8.40;99.90
33093;DHT22;19456;46.104;12.908;2023-04-25T03:23:19;8.40;99.90
33093;DHT22;19456;46.104;12.908;2023-04-25T03:25:44;8.30;99.90
33093;DHT22;19456;46.104;12.908;2023-04-25T03:28:10;8.30;99.90
33093;DHT22;19456;46.104;12.908;2023-04-25T03:30:35;8.30;99.90
33093;DHT22;19456;46.104;12.908;2023-04-25T03:33:01;8.20;99.90
33093;DHT22;19456;46.104;12.908;2023-04-25T03:35:26;8.20;99.90
33093;DHT22;19456;46.104;12.908;2023-04-25T03:37:52;8.20;99.90
33093;DHT22;19456;46.104;12.908;2023-04-25T03:40:18;8.20;99.90
33093;DHT22;19456;46.104;12.908;2023-04-25T03:42:43;8.30;99.90
33093;DHT22;19456;46.104;12.908;2023-04-25T03:45:09;8.30;99.90
33093;DHT22;19456;46.104;12.908;2023-04-25T03:47:34;8.40;99.90
33093;DHT22;19456;46.104;12.908;2023-04-25T03:50:00;8.30;99.90
33093;DHT22;19456;46.104;12.908;2023-04-25T03:52:26;8.20;99.90
33093;DHT22;19456;46.104;12.908;2023-04-25T03:54:52;8.30;99.90
33093;DHT22;19456;46.104;12.908;2023-04-25T03:57:18;8.20;99.90
33093;DHT22;19456;46.104;12.908;2023-04-25T03:59:43;8.10;99.90
33093;DHT22;19456;46.104;12.908;2023-04-25T04:02:09;8.10;99.90
33093;DHT22;19456;46.104;12.908;2023-04-25T04:04:35;8.10;99.90
33093;DHT22;19456;46.104;12.908;2023-04-25T04:07:00;8.20;99.90
33093;DHT22;19456;46.104;12.908;2023-04-25T04:09:26;8.30;99.90
33093;DHT22;19456;46.104;12.908;2023-04-25T04:11:52;8.20;99.90
33093;DHT22;19456;46.104;12.908;2023-04-25T04:14:18;8.20;99.90
33093;DHT22;19456;46.104;12.908;2023-04-25T04:16:44;8.20;99.90
33093;DHT22;19456;46.104;12.908;2023-04-25T04:19:10;8.20;99.90
33093;DHT22;19456;46.104;12.908;2023-04-25T04:21:35;8.20;99.90
33093;DHT22;19456;46.104;12.908;2023-04-25T04:24:01;8.20;99.90
33093;DHT22;19456;46.104;12.908;2023-04-25T04:26:27;8.20;99.90
33093;DHT22;19456;46.104;12.908;2023-04-25T04:28:52;8.30;99.90
33093;DHT22;19456;46.104;12.908;2023-04-25T04:31:22;8.20;99.90
33093;DHT22;19456;46.104;12.908;2023-04-25T04:33:49;8.30;99.90
33093;DHT22;19456;46.104;12.908;2023-04-25T04:36:15;8.30;99.90
33093;DHT22;19456;46.104;12.908;2023-04-25T04:38:41;8.40;99.90
33093;DHT22;19456;46.104;12.908;2023-04-25T04:41:07;8.40;99.90
33093;DHT22;19456;46.104;12.908;2023-04-25T04:43:33;8.50;99.90
33093;DHT22;19456;46.104;12.908;2023-04-25T04:46:00;8.60;99.90
33093;DHT22;19456;46.104;12.908;2023-04-25T04:48:25;8.60;99.90
33093;DHT22;19456;46.104;12.908;2023-04-25T04:50:51;8.60;99.90
33093;DHT22;19456;46.104;12.908;2023-04-25T04:53:17;8.60;99.90
33093;DHT22;19456;46.104;12.908;2023-04-25T04:55:42;8.70;99.90
33093;DHT22;19456;46.104;12.908;2023-04-25T04:58:08;8.80;99.90
33093;DHT22;19456;46.104;12.908;2023-04-25T05:00:34;8.90;99.90
33093;DHT22;19456;46.104;12.908;2023-04-25T05:02:59;9.00;99.90
33093;DHT22;19456;46.104;12.908;2023-04-25T05:05:25;9.10;99.90
33093;DHT22;19456;46.104;12.908;2023-04-25T05:07:50;9.20;99.90
33093;DHT22;19456;46.104;12.908;2023-04-25T05:10:17;9.30;99.90
33093;DHT22;19456;46.104;12.908;2023-04-25T05:12:42;9.40;99.90
33093;DHT22;19456;46.104;12.908;2023-04-25T05:15:08;9.50;99.90
33093;DHT22;19456;46.104;12.908;2023-04-25T05:17:34;9.60;99.90
33093;DHT22;19456;46.104;12.908;2023-04-25T05:19:59;9.80;99.90
33093;DHT22;19456;46.104;12.908;2023-04-25T05:22:25;9.90;99.90
33093;DHT22;19456;46.104;12.908;2023-04-25T05:24:51;10.10;99.90
33093;DHT22;19456;46.104;12.908;2023-04-25T05:27:17;10.20;99.90
33093;DHT22;19456;46.104;12.908;2023-04-25T05:29:44;10.30;99.90
33093;DHT22;19456;46.104;12.908;2023-04-25T05:32:10;10.40;99.90
33093;DHT22;19456;46.104;12.908;2023-04-25T05:34:36;10.60;99.90
33093;DHT22;19456;46.104;12.908;2023-04-25T05:37:02;10.70;99.90
33093;DHT22;19456;46.104;12.908;2023-04-25T05:39:27;10.80;99.90
33093;DHT22;19456;46.104;12.908;2023-04-25T05:41:53;10.80;99.90
33093;DHT22;19456;46.104;12.908;2023-04-25T05:44:18;10.90;99.90
33093;DHT22;19456;46.104;12.908;2023-04-25T05:46:44;10.90;99.90
33093;DHT22;19456;46.104;12.908;2023-04-25T05:49:10;11.00;99.90
33093;DHT22;19456;46.104;12.908;2023-04-25T05:51:35;10.90;99.90
33093;DHT22;19456;46.104;12.908;2023-04-25T05:54:01;10.80;99.90
33093;DHT22;19456;46.104;12.908;2023-04-25T05:56:26;10.90;99.90
33093;DHT22;19456;46.104;12.908;2023-04-25T05:58:52;11.00;99.90
33093;DHT22;19456;46.104;12.908;2023-04-25T06:01:18;11.00;99.90
33093;DHT22;19456;46.104;12.908;2023-04-25T06:03:43;11.10;99.90
33093;DHT22;19456;46.104;12.908;2023-04-25T06:06:10;11.20;99.90
33093;DHT22;19456;46.104;12.908;2023-04-25T06:08:36;11.20;99.90
33093;DHT22;19456;46.104;12.908;2023-04-25T06:11:03;11.20;99.90
33093;DHT22;19456;46.104;12.908;2023-04-25T06:13:28;11.20;99.90
33093;DHT22;19456;46.104;12.908;2023-04-25T06:15:54;11.10;99.90
33093;DHT22;19456;46.104;12.908;2023-04-25T06:18:19;11.00;99.90
33093;DHT22;19456;46.104;12.908;2023-04-25T06:20:45;11.10;99.90
33093;DHT22;19456;46.104;12.908;2023-04-25T06:23:10;11.00;99.90
33093;DHT22;19456;46.104;12.908;2023-04-25T06:25:36;10.90;99.90
33093;DHT22;19456;46.104;12.908;2023-04-25T06:28:02;10.90;99.90
33093;DHT22;19456;46.104;12.908;2023-04-25T06:30:27;11.00;99.90
33093;DHT22;19456;46.104;12.908;2023-04-25T06:32:53;11.10;99.90
33093;DHT22;19456;46.104;12.908;2023-04-25T06:35:18;11.20;99.90
33093;DHT22;19456;46.104;12.908;2023-04-25T06:37:44;11.20;99.90
33093;DHT22;19456;46.104;12.908;2023-04-25T06:40:09;11.10;99.90
33093;DHT22;19456;46.104;12.908;2023-04-25T06:42:36;11.00;99.90
33093;DHT22;19456;46.104;12.908;2023-04-25T06:45:02;10.90;99.90
33093;DHT22;19456;46.104;12.908;2023-04-25T06:47:27;10.90;99.90
33093;DHT22;19456;46.104;12.908;2023-04-25T06:49:53;10.80;99.90
33093;DHT22;19456;46.104;12.908;2023-04-25T06:52:18;10.70;99.90
33093;DHT22;19456;46.104;12.908;2023-04-25T06:54:44;10.80;99.90
33093;DHT22;19456;46.104;12.908;2023-04-25T06:57:10;10.80;99.90
33093;DHT22;19456;46.104;12.908;2023-04-25T06:59:35;10.80;99.90
33093;DHT22;19456;46.104;12.908;2023-04-25T07:02:01;10.90;99.90
33093;DHT22;19456;46.104;12.908;2023-04-25T07:04:27;10.80;99.90
33093;DHT22;19456;46.104;12.908;2023-04-25T07:06:52;10.80;99.90
33093;DHT22;19456;46.104;12.908;2023-04-25T07:09:18;10.80;99.90
33093;DHT22;19456;46.104;12.908;2023-04-25T07:11:44;11.00;99.90
33093;DHT22;19456;46.104;12.908;2023-04-25T07:14:10;11.10;99.90
33093;DHT22;19456;46.104;12.908;2023-04-25T07:16:35;11.20;99.90
33093;DHT22;19456;46.104;12.908;2023-04-25T07:19:01;11.20;99.90
33093;DHT22;19456;46.104;12.908;2023-04-25T07:21:26;11.30;99.90
33093;DHT22;19456;46.104;12.908;2023-04-25T07:23:52;11.40;99.90
33093;DHT22;19456;46.104;12.908;2023-04-25T07:26:17;11.50;99.90
33093;DHT22;19456;46.104;12.908;2023-04-25T07:28:43;11.50;99.90
33093;DHT22;19456;46.104;12.908;2023-04-25T07:31:09;11.50;99.90
33093;DHT22;19456;46.104;12.908;2023-04-25T07:33:34;11.40;99.90
33093;DHT22;19456;46.104;12.908;2023-04-25T07:36:00;11.50;99.90
33093;DHT22;19456;46.104;12.908;2023-04-25T07:38:26;11.50;99.90
33093;DHT22;19456;46.104;12.908;2023-04-25T07:40:53;11.50;99.90
33093;DHT22;19456;46.104;12.908;2023-04-25T07:43:19;11.40;99.90
33093;DHT22;19456;46.104;12.908;2023-04-25T07:45:45;11.50;99.90
33093;DHT22;19456;46.104;12.908;2023-04-25T07:48:11;11.60;99.90
33093;DHT22;19456;46.104;12.908;2023-04-25T07:50:36;11.70;99.90
33093;DHT22;19456;46.104;12.908;2023-04-25T07:53:02;11.70;99.90
33093;DHT22;19456;46.104;12.908;2023-04-25T07:55:28;11.80;99.90
33093;DHT22;19456;46.104;12.908;2023-04-25T07:57:53;11.80;99.90
33093;DHT22;19456;46.104;12.908;2023-04-25T08:00:19;11.90;99.90
33093;DHT22;19456;46.104;12.908;2023-04-25T08:02:45;12.10;99.90
33093;DHT22;19456;46.104;12.908;2023-04-25T08:05:10;12.00;99.90
33093;DHT22;19456;46.104;12.908;2023-04-25T08:07:39;12.00;99.90
33093;DHT22;19456;46.104;12.908;2023-04-25T08:10:05;12.10;99.90
33093;DHT22;19456;46.104;12.908;2023-04-25T08:12:32;12.00;99.90
33093;DHT22;19456;46.104;12.908;2023-04-25T08:14:57;11.90;99.90
33093;DHT22;19456;46.104;12.908;2023-04-25T08:17:23;12.00;99.90
33093;DHT22;19456;46.104;12.908;2023-04-25T08:19:48;12.10;99.90
33093;DHT22;19456;46.104;12.908;2023-04-25T08:22:14;12.20;99.90
33093;DHT22;19456;46.104;12.908;2023-04-25T08:24:41;12.20;99.90
33093;DHT22;19456;46.104;12.908;2023-04-25T08:27:06;12.20;99.90
33093;DHT22;19456;46.104;12.908;2023-04-25T08:29:33;12.20;99.90
33093;DHT22;19456;46.104;12.908;2023-04-25T08:31:58;12.20;99.90
33093;DHT22;19456;46.104;12.908;2023-04-25T08:34:24;12.30;99.90
33093;DHT22;19456;46.104;12.908;2023-04-25T08:36:50;12.40;99.90
33093;DHT22;19456;46.104;12.908;2023-04-25T08:39:16;12.50;99.90
33093;DHT22;19456;46.104;12.908;2023-04-25T08:41:42;12.50;99.90
33093;DHT22;19456;46.104;12.908;2023-04-25T08:44:09;12.60;99.90
33093;DHT22;19456;46.104;12.908;2023-04-25T08:46:35;12.70;99.90
33093;DHT22;19456;46.104;12.908;2023-04-25T08:49:02;12.60;99.90
33093;DHT22;19456;46.104;12.908;2023-04-25T08:51:30;12.60;99.90
33093;DHT22;19456;46.104;12.908;2023-04-25T08:53:57;12.60;99.90
33093;DHT22;19456;46.104;12.908;2023-04-25T08:56:27;12.40;99.90
33093;DHT22;19456;46.104;12.908;2023-04-25T08:58:53;12.50;99.90
33093;DHT22;19456;46.104;12.908;2023-04-25T09:01:20;12.50;99.90
33093;DHT22;19456;46.104;12.908;2023-04-25T09:03:46;12.50;99.90
33093;DHT22;19456;46.104;12.908;2023-04-25T09:06:12;12.60;99.90
33093;DHT22;19456;46.104;12.908;2023-04-25T09:08:38;12.80;99.90
33093;DHT22;19456;46.104;12.908;2023-04-25T09:11:06;12.80;99.90
33093;DHT22;19456;46.104;12.908;2023-04-25T09:13:31;12.70;99.90
33093;DHT22;19456;46.104;12.908;2023-04-25T09:15:57;12.50;99.90
33093;DHT22;19456;46.104;12.908;2023-04-25T09:20:50;12.40;99.90
33093;DHT22;19456;46.104;12.908;2023-04-25T09:23:16;12.30;99.90
33093;DHT22;19456;46.104;12.908;2023-04-25T09:25:44;12.20;99.90
33093;DHT22;19456;46.104;12.908;2023-04-25T09:28:12;12.10;99.90
33093;DHT22;19456;46.104;12.908;2023-04-25T09:30:37;12.10;99.90
33093;DHT22;19456;46.104;12.908;2023-04-25T09:33:03;12.10;99.90
33093;DHT22;19456;46.104;12.908;2023-04-25T09:35:30;12.10;99.90
33093;DHT22;19456;46.104;12.908;2023-04-25T09:38:00;12.00;99.90
33093;DHT22;19456;46.104;12.908;2023-04-25T09:40:26;12.10;99.90
33093;DHT22;19456;46.104;12.908;2023-04-25T09:42:51;12.20;99.90
33093;DHT22;19456;46.104;12.908;2023-04-25T09:45:17;12.10;99.90
33093;DHT22;19456;46.104;12.908;2023-04-25T09:47:42;12.20;99.90
33093;DHT22;19456;46.104;12.908;2023-04-25T09:50:14;12.30;99.90
33093;DHT22;19456;46.104;12.908;2023-04-25T09:52:41;12.20;99.90
33093;DHT22;19456;46.104;12.908;2023-04-25T09:55:06;12.00;99.90
33093;DHT22;19456;46.104;12.908;2023-04-25T09:57:32;12.20;99.90
33093;DHT22;19456;46.104;12.908;2023-04-25T09:59:58;12.10;99.90
33093;DHT22;19456;46.104;12.908;2023-04-25T10:02:26;12.00;99.90
33093;DHT22;19456;46.104;12.908;2023-04-25T10:04:52;12.00;99.90
33093;DHT22;19456;46.104;12.908;2023-04-25T10:07:23;12.00;99.90
33093;DHT22;19456;46.104;12.908;2023-04-25T10:09:55;11.90;99.90
33093;DHT22;19456;46.104;12.908;2023-04-25T10:12:24;11.70;99.90
33093;DHT22;19456;46.104;12.908;2023-04-25T10:14:50;11.40;99.90
33093;DHT22;19456;46.104;12.908;2023-04-25T10:17:16;11.40;99.90
33093;DHT22;19456;46.104;12.908;2023-04-25T10:19:41;11.30;99.90
33093;DHT22;19456;46.104;12.908;2023-04-25T10:22:08;11.30;99.90
33093;DHT22;19456;46.104;12.908;2023-04-25T10:24:37;11.30;99.90
33093;DHT22;19456;46.104;12.908;2023-04-25T10:27:04;11.30;99.90
33093;DHT22;19456;46.104;12.908;2023-04-25T10:29:29;11.20;99.90
33093;DHT22;19456;46.104;12.908;2023-04-25T10:31:55;11.20;99.90
33093;DHT22;19456;46.104;12.908;2023-04-25T10:34:37;11.10;99.90
33093;DHT22;19456;46.104;12.908;2023-04-25T10:37:04;11.00;99.90
33093;DHT22;19456;46.104;12.908;2023-04-25T10:39:29;11.00;99.90
33093;DHT22;19456;46.104;12.908;2023-04-25T10:41:56;11.10;99.90
33093;DHT22;19456;46.104;12.908;2023-04-25T10:44:22;11.10;99.90
33093;DHT22;19456;46.104;12.908;2023-04-25T10:46:47;11.10;99.90
33093;DHT22;19456;46.104;12.908;2023-04-25T10:49:35;11.10;99.90
33093;DHT22;19456;46.104;12.908;2023-04-25T10:54:46;11.20;99.90
33093;DHT22;19456;46.104;12.908;2023-04-25T10:57:28;11.40;99.90
33093;DHT22;19456;46.104;12.908;2023-04-25T11:00:16;11.60;99.90
33093;DHT22;19456;46.104;12.908;2023-04-25T11:02:47;11.70;99.90
33093;DHT22;19456;46.104;12.908;2023-04-25T11:07:57;12.10;99.90
33093;DHT22;19456;46.104;12.908;2023-04-25T11:10:26;12.20;99.90
33093;DHT22;19456;46.104;12.908;2023-04-25T11:12:52;12.30;99.90
33093;DHT22;19456;46.104;12.908;2023-04-25T11:15:18;12.40;99.90
33093;DHT22;19456;46.104;12.908;2023-04-25T11:17:43;12.40;99.90
33093;DHT22;19456;46.104;12.908;2023-04-25T11:20:11;12.50;99.90
33093;DHT22;19456;46.104;12.908;2023-04-25T11:22:38;12.70;99.90
33093;DHT22;19456;46.104;12.908;2023-04-25T11:25:07;12.80;99.90
33093;DHT22;19456;46.104;12.908;2023-04-25T11:27:33;12.80;99.90
33093;DHT22;19456;46.104;12.908;2023-04-25T11:32:56;13.00;99.90
33093;DHT22;19456;46.104;12.908;2023-04-25T11:35:21;13.00;99.90
33093;DHT22;19456;46.104;12.908;2023-04-25T11:37:48;13.30;99.90
33093;DHT22;19456;46.104;12.908;2023-04-25T11:40:14;13.60;99.90
33093;DHT22;19456;46.104;12.908;2023-04-25T11:42:43;13.60;99.90
33093;DHT22;19456;46.104;12.908;2023-04-25T11:45:09;13.70;99.90
33093;DHT22;19456;46.104;12.908;2023-04-25T11:47:36;13.70;99.90
33093;DHT22;19456;46.104;12.908;2023-04-25T11:50:02;13.80;99.90
33093;DHT22;19456;46.104;12.908;2023-04-25T11:55:07;13.90;99.90
33093;DHT22;19456;46.104;12.908;2023-04-25T11:57:33;14.20;99.90
33093;DHT22;19456;46.104;12.908;2023-04-25T12:02:42;14.10;99.90
33093;DHT22;19456;46.104;12.908;2023-04-25T12:05:08;14.40;99.90
33093;DHT22;19456;46.104;12.908;2023-04-25T12:07:34;14.40;99.90
33093;DHT22;19456;46.104;12.908;2023-04-25T12:10:03;14.30;99.90
33093;DHT22;19456;46.104;12.908;2023-04-25T12:12:32;14.60;99.90
33093;DHT22;19456;46.104;12.908;2023-04-25T12:15:07;14.70;99.90
33093;DHT22;19456;46.104;12.908;2023-04-25T12:17:34;14.70;99.90
33093;DHT22;19456;46.104;12.908;2023-04-25T12:20:05;14.60;99.90
33093;DHT22;19456;46.104;12.908;2023-04-25T12:22:30;14.70;99.90
33093;DHT22;19456;46.104;12.908;2023-04-25T12:24:57;14.80;99.90
33093;DHT22;19456;46.104;12.908;2023-04-25T12:27:23;15.10;99.90
33093;DHT22;19456;46.104;12.908;2023-04-25T12:29:51;15.20;99.90
33093;DHT22;19456;46.104;12.908;2023-04-25T12:32:17;15.60;99.90
33093;DHT22;19456;46.104;12.908;2023-04-25T12:34:44;16.00;99.90
33093;DHT22;19456;46.104;12.908;2023-04-25T12:37:10;16.10;99.90
33093;DHT22;19456;46.104;12.908;2023-04-25T12:39:35;16.60;99.90
33093;DHT22;19456;46.104;12.908;2023-04-25T12:42:01;17.20;99.90
33093;DHT22;19456;46.104;12.908;2023-04-25T12:44:27;17.30;99.90
33093;DHT22;19456;46.104;12.908;2023-04-25T12:46:53;17.60;99.90
33093;DHT22;19456;46.104;12.908;2023-04-25T12:49:19;18.40;99.90
33093;DHT22;19456;46.104;12.908;2023-04-25T12:51:45;19.10;99.90
33093;DHT22;19456;46.104;12.908;2023-04-25T12:54:10;19.20;99.90
33093;DHT22;19456;46.104;12.908;2023-04-25T12:56:36;19.30;99.90
33093;DHT22;19456;46.104;12.908;2023-04-25T12:59:02;19.80;99.90
33093;DHT22;19456;46.104;12.908;2023-04-25T13:01:30;20.00;99.90
33093;DHT22;19456;46.104;12.908;2023-04-25T13:03:56;20.30;99.90
33093;DHT22;19456;46.104;12.908;2023-04-25T13:06:21;19.90;99.90
33093;DHT22;19456;46.104;12.908;2023-04-25T13:08:47;20.40;99.90
33093;DHT22;19456;46.104;12.908;2023-04-25T13:11:13;19.70;99.90
33093;DHT22;19456;46.104;12.908;2023-04-25T13:13:40;19.80;99.90
33093;DHT22;19456;46.104;12.908;2023-04-25T13:16:06;20.10;99.90
33093;DHT22;19456;46.104;12.908;2023-04-25T13:18:32;20.00;99.90
33093;DHT22;19456;46.104;12.908;2023-04-25T13:20:58;20.30;99.90
33093;DHT22;19456;46.104;12.908;2023-04-25T13:23:25;20.40;99.90
33093;DHT22;19456;46.104;12.908;2023-04-25T13:25:51;19.90;99.90
33093;DHT22;19456;46.104;12.908;2023-04-25T13:28:16;19.50;99.90
33093;DHT22;19456;46.104;12.908;2023-04-25T13:30:42;19.40;99.90
33093;DHT22;19456;46.104;12.908;2023-04-25T13:33:08;19.00;99.90
33093;DHT22;19456;46.104;12.908;2023-04-25T13:35:34;19.40;99.90
33093;DHT22;19456;46.104;12.908;2023-04-25T13:38:00;20.40;99.90
33093;DHT22;19456;46.104;12.908;2023-04-25T13:40:26;20.70;99.90
33093;DHT22;19456;46.104;12.908;2023-04-25T13:42:52;21.30;99.90
33093;DHT22;19456;46.104;12.908;2023-04-25T13:45:18;21.60;99.90
33093;DHT22;19456;46.104;12.908;2023-04-25T13:47:43;21.90;99.90
33093;DHT22;19456;46.104;12.908;2023-04-25T13:50:09;21.70;99.90
33093;DHT22;19456;46.104;12.908;2023-04-25T13:52:35;21.50;98.50
33093;DHT22;19456;46.104;12.908;2023-04-25T13:55:00;21.20;98.30
33093;DHT22;19456;46.104;12.908;2023-04-25T13:57:28;21.90;97.60
33093;DHT22;19456;46.104;12.908;2023-04-25T13:59:54;22.00;96.70
33093;DHT22;19456;46.104;12.908;2023-04-25T14:02:19;22.70;96.90
33093;DHT22;19456;46.104;12.908;2023-04-25T14:04:45;23.10;94.90
33093;DHT22;19456;46.104;12.908;2023-04-25T14:07:11;23.30;94.00
33093;DHT22;19456;46.104;12.908;2023-04-25T14:09:36;23.40;93.40
33093;DHT22;19456;46.104;12.908;2023-04-25T14:12:02;23.20;92.10
33093;DHT22;19456;46.104;12.908;2023-04-25T14:14:28;22.80;92.00
33093;DHT22;19456;46.104;12.908;2023-04-25T14:16:53;23.60;92.10
33093;DHT22;19456;46.104;12.908;2023-04-25T14:19:19;23.20;92.10
33093;DHT22;19456;46.104;12.908;2023-04-25T14:21:45;24.10;90.80
33093;DHT22;19456;46.104;12.908;2023-04-25T14:24:11;24.40;90.10
33093;DHT22;19456;46.104;12.908;2023-04-25T14:26:37;24.70;89.30
33093;DHT22;19456;46.104;12.908;2023-04-25T14:29:04;25.40;87.90
33093;DHT22;19456;46.104;12.908;2023-04-25T14:31:30;25.00;86.40
33093;DHT22;19456;46.104;12.908;2023-04-25T14:33:55;24.60;85.00
33093;DHT22;19456;46.104;12.908;2023-04-25T14:36:21;24.30;84.30
33093;DHT22;19456;46.104;12.908;2023-04-25T14:38:46;24.50;83.90
33093;DHT22;19456;46.104;12.908;2023-04-25T14:41:12;24.50;84.20
33093;DHT22;19456;46.104;12.908;2023-04-25T14:43:38;24.60;83.80
33093;DHT22;19456;46.104;12.908;2023-04-25T14:46:05;24.60;83.60
33093;DHT22;19456;46.104;12.908;2023-04-25T14:48:32;24.70;85.60
33093;DHT22;19456;46.104;12.908;2023-04-25T14:50:57;23.60;84.30
33093;DHT22;19456;46.104;12.908;2023-04-25T14:53:23;23.40;85.90
33093;DHT22;19456;46.104;12.908;2023-04-25T14:55:48;23.80;85.10
33093;DHT22;19456;46.104;12.908;2023-04-25T14:58:14;24.20;85.40
33093;DHT22;19456;46.104;12.908;2023-04-25T15:00:43;23.90;85.10
33093;DHT22;19456;46.104;12.908;2023-04-25T15:03:09;22.80;86.50
33093;DHT22;19456;46.104;12.908;2023-04-25T15:05:36;22.30;87.40
33093;DHT22;19456;46.104;12.908;2023-04-25T15:08:02;22.80;85.90
33093;DHT22;19456;46.104;12.908;2023-04-25T15:10:28;23.40;85.10
33093;DHT22;19456;46.104;12.908;2023-04-25T15:12:53;24.00;85.10
33093;DHT22;19456;46.104;12.908;2023-04-25T15:15:19;24.40;83.90
33093;DHT22;19456;46.104;12.908;2023-04-25T15:17:45;24.50;81.70
33093;DHT22;19456;46.104;12.908;2023-04-25T15:20:11;24.40;80.50
33093;DHT22;19456;46.104;12.908;2023-04-25T15:22:38;24.00;80.50
33093;DHT22;19456;46.104;12.908;2023-04-25T15:25:05;23.30;81.50
33093;DHT22;19456;46.104;12.908;2023-04-25T15:27:33;23.40;81.30
33093;DHT22;19456;46.104;12.908;2023-04-25T15:29:58;23.30;82.30